Time;durP1;ratioP1;P1;durP2;ratioP2;P2;SDS_P1;SDS_P2;PMS_P1;PMS_P2;Temp;Humidity;BMP_temperature;BMP_pressure;BME280_temperature;BME280_humidity;BME280_pressure;Samples;Min_cycle;Max_cycle;Signal;HPM_P1;HPM_P2
2022/06/01 00:00:52;;;;;;;12.80;9.63;;;11.40;99.90;;;;;;7395184;19;20014;-74
2022/06/01 00:03:24;;;;;;;14.10;9.65;;;11.30;99.90;;;;;;7395981;19;20022;-74
2022/06/01 00:05:57;;;;;;;13.57;9.52;;;11.20;99.90;;;;;;7394515;19;20477;-73
2022/06/01 00:08:27;;;;;;;13.38;8.93;;;11.40;99.90;;;;;;7395991;19;20015;-74
2022/06/01 00:10:58;;;;;;;12.52;9.05;;;11.50;99.90;;;;;;7395710;19;20026;-73
2022/06/01 00:13:30;;;;;;;14.93;10.15;;;11.50;99.90;;;;;;7394510;19;20100;-74
2022/06/01 00:16:00;;;;;;;12.38;9.70;;;11.30;99.90;;;;;;7395839;19;20084;-73
2022/06/01 00:18:31;;;;;;;14.10;9.52;;;9.90;99.90;;;;;;7396685;19;20022;-74
2022/06/01 00:21:04;;;;;;;12.15;9.32;;;11.30;99.90;;;;;;7395487;19;20015;-73
2022/06/01 00:23:35;;;;;;;11.98;9.35;;;11.30;99.90;;;;;;7396671;19;20017;-74
2022/06/01 00:26:04;;;;;;;13.40;9.63;;;11.40;99.90;;;;;;7393843;19;20014;-73
2022/06/01 00:28:35;;;;;;;12.38;9.35;;;11.40;99.90;;;;;;7397146;19;20025;-74
2022/06/01 00:31:06;;;;;;;15.23;9.00;;;11.30;99.90;;;;;;7394217;19;20078;-74
2022/06/01 00:33:39;;;;;;;13.88;9.48;;;11.40;99.90;;;;;;7398532;19;20034;-74
2022/06/01 00:36:13;;;;;;;13.43;9.63;;;11.30;99.90;;;;;;7395792;19;20078;-74
2022/06/01 00:38:43;;;;;;;14.13;9.95;;;11.30;99.90;;;;;;7393402;19;20022;-73
2022/06/01 00:41:13;;;;;;;13.70;10.73;;;11.30;99.90;;;;;;7393594;19;20021;-74
2022/06/01 00:43:47;;;;;;;15.23;11.43;;;11.40;99.90;;;;;;7394957;19;20082;-74
2022/06/01 00:46:17;;;;;;;14.68;10.80;;;11.30;99.90;;;;;;7395393;19;20018;-74
2022/06/01 00:48:50;;;;;;;15.60;11.00;;;11.40;99.90;;;;;;7393918;19;20010;-74
2022/06/01 00:51:29;;;;;;;14.60;11.30;;;11.30;99.90;;;;;;7394102;19;20031;-73
2022/06/01 00:54:00;;;;;;;13.48;9.73;;;11.10;99.90;;;;;;7393223;19;20123;-74
2022/06/01 00:56:39;;;;;;;14.68;10.68;;;11.30;99.90;;;;;;7393554;19;20090;-73
2022/06/01 00:59:14;;;;;;;13.95;10.68;;;11.60;99.90;;;;;;7391271;19;20022;-73
2022/06/01 01:01:44;;;;;;;14.52;10.68;;;11.20;99.90;;;;;;7395666;19;20029;-73
2022/06/01 01:04:16;;;;;;;13.48;10.45;;;;;;;;;;7393052;19;20035;-73
2022/06/01 01:06:49;;;;;;;15.30;11.20;;;11.30;99.90;;;;;;7393420;19;20015;-74
2022/06/01 01:09:20;;;;;;;14.05;11.00;;;11.30;99.90;;;;;;7394799;19;20018;-73
2022/06/01 01:11:56;;;;;;;15.32;11.52;;;11.30;99.90;;;;;;7393763;19;20038;-74
2022/06/01 01:14:30;;;;;;;14.80;11.15;;;11.10;99.90;;;;;;7394527;19;20014;-74
2022/06/01 01:17:02;;;;;;;;;;;10.20;99.90;;;;;;7396183;19;20011;-73
2022/06/01 01:19:36;;;;;;;14.48;11.20;;;11.50;99.90;;;;;;7392099;19;19938;-74
2022/06/01 01:22:22;;;;;;;18.02;10.80;;;11.00;99.90;;;;;;7392395;19;20031;-73
2022/06/01 01:25:18;;;;;;;16.20;11.95;;;11.20;99.90;;;;;;7391140;19;20420;-73
2022/06/01 01:27:51;;;;;;;13.93;10.63;;;11.50;99.90;;;;;;7392323;19;20014;-73
2022/06/01 01:30:50;;;;;;;16.52;11.00;;;11.20;99.90;;;;;;7391867;19;20025;-74
2022/06/01 01:33:23;;;;;;;15.55;11.55;;;11.30;99.90;;;;;;7393595;19;20476;-73
2022/06/01 01:35:55;;;;;;;17.45;11.75;;;11.20;99.90;;;;;;7392125;19;20038;-73
2022/06/01 01:38:35;;;;;;;16.67;11.43;;;11.10;99.90;;;;;;7391971;19;20022;-73
2022/06/01 01:41:18;;;;;;;15.77;11.82;;;11.20;99.90;;;;;;7395118;19;20535;-74
2022/06/01 01:43:57;;;;;;;16.33;11.73;;;11.20;99.90;;;;;;7389418;19;20504;-73
2022/06/01 01:46:27;;;;;;;16.85;12.30;;;11.20;99.90;;;;;;7395031;19;20018;-73
2022/06/01 01:48:57;;;;;;;15.38;11.80;;;11.30;99.90;;;;;;7392550;19;20031;-74
2022/06/01 01:51:30;;;;;;;17.75;12.85;;;11.20;99.90;;;;;;7387416;19;20034;-74
2022/06/01 01:54:02;;;;;;;15.57;11.85;;;11.50;99.90;;;;;;7394598;19;20018;-73
2022/06/01 01:56:51;;;;;;;17.27;12.13;;;11.10;99.90;;;;;;7392098;19;20084;-73
2022/06/01 01:59:34;;;;;;;17.10;12.77;;;11.40;99.90;;;;;;7388023;19;20014;-74
2022/06/01 02:02:09;;;;;;;15.07;11.45;;;11.50;99.90;;;;;;7395166;19;20035;-74
2022/06/01 02:07:37;;;;;;;17.45;11.90;;;11.20;99.90;;;;;;7391146;19;20018;-74
2022/06/01 02:12:55;;;;;;;19.55;12.27;;;11.20;99.90;;;;;;7392265;19;20018;-73
2022/06/01 02:15:30;;;;;;;17.27;12.93;;;11.30;99.90;;;;;;7392021;19;20317;-73
2022/06/01 02:18:04;;;;;;;18.98;12.88;;;11.20;99.90;;;;;;7396497;19;20014;-74
2022/06/01 02:20:40;;;;;;;18.98;13.45;;;11.00;99.90;;;;;;7398272;19;20059;-74
2022/06/01 02:23:13;;;;;;;16.42;12.25;;;11.00;99.90;;;;;;7400874;19;20029;-73
2022/06/01 02:25:48;;;;;;;15.88;11.95;;;11.20;99.90;;;;;;7399442;19;20488;-72
2022/06/01 02:28:21;;;;;;;17.02;13.05;;;11.10;99.90;;;;;;7397687;19;20017;-73
2022/06/01 02:30:54;;;;;;;15.40;11.57;;;11.10;99.90;;;;;;7400201;19;20018;-73
2022/06/01 02:33:27;;;;;;;17.67;12.05;;;11.00;99.90;;;;;;7400706;19;20025;-73
2022/06/01 02:36:00;;;;;;;17.88;12.50;;;10.70;99.90;;;;;;7399753;19;20277;-73
2022/06/01 02:38:37;;;;;;;16.08;12.15;;;10.90;99.90;;;;;;7401001;19;20022;-73
2022/06/01 02:42:25;;;;;;;17.08;11.98;;;11.00;99.90;;;;;;7401000;19;20018;-73
2022/06/01 02:44:01;;;;;;;16.05;12.48;;;10.90;99.90;;;;;;7400296;19;20018;-74
2022/06/01 02:46:33;;;;;;;18.67;13.30;;;10.90;99.90;;;;;;7401931;19;20014;-74
2022/06/01 02:49:04;;;;;;;18.42;13.23;;;10.90;99.90;;;;;;7399977;19;20033;-73
2022/06/01 02:51:33;;;;;;;18.15;12.80;;;10.90;99.90;;;;;;7401827;19;20026;-73
2022/06/01 02:54:03;;;;;;;18.13;12.65;;;10.90;99.90;;;;;;7399422;19;20022;-74
2022/06/01 02:56:34;;;;;;;18.85;13.75;;;10.80;99.90;;;;;;7397323;19;20379;-75
2022/06/01 02:59:07;;;;;;;21.08;13.70;;;11.10;99.90;;;;;;7398763;19;20015;-74
2022/06/01 03:01:39;;;;;;;17.90;13.23;;;;;;;;;;7399824;19;20022;-74
2022/06/01 03:04:09;;;;;;;17.95;12.48;;;10.80;99.90;;;;;;7399878;19;20018;-74
2022/06/01 03:06:39;;;;;;;18.48;12.65;;;10.50;99.90;;;;;;7400959;19;20018;-73
2022/06/01 03:09:11;;;;;;;18.48;11.98;;;10.70;99.90;;;;;;7398745;19;20022;-73
2022/06/01 03:11:41;;;;;;;15.35;11.20;;;11.30;99.90;;;;;;7395772;19;20026;-73
2022/06/01 03:14:14;;;;;;;17.60;11.93;;;10.40;99.90;;;;;;7399388;19;20018;-74
2022/06/01 03:16:50;;;;;;;17.70;12.60;;;10.60;99.90;;;;;;7396774;19;20576;-73
2022/06/01 03:19:20;;;;;;;17.27;12.30;;;10.60;99.90;;;;;;7395105;19;20018;-74
2022/06/01 03:21:50;;;;;;;18.00;13.65;;;10.60;99.90;;;;;;7397390;19;20021;-73
2022/06/01 03:24:21;;;;;;;20.17;13.43;;;10.60;99.90;;;;;;7398171;19;20339;-73
2022/06/01 03:26:51;;;;;;;19.15;13.18;;;10.40;99.90;;;;;;7397269;19;20046;-74
2022/06/01 03:29:24;;;;;;;18.05;13.70;;;10.50;99.90;;;;;;7394882;19;20014;-74
2022/06/01 03:31:55;;;;;;;19.23;13.98;;;10.50;99.90;;;;;;7395310;19;20014;-74
2022/06/01 03:34:28;;;;;;;18.58;13.63;;;10.60;99.90;;;;;;7397897;19;20010;-74
2022/06/01 03:36:59;;;;;;;21.65;15.25;;;10.50;99.90;;;;;;7396400;19;20018;-74
2022/06/01 03:39:30;;;;;;;18.63;13.75;;;10.60;99.90;;;;;;7398297;19;20019;-73
2022/06/01 03:42:01;;;;;;;21.02;14.18;;;10.60;99.90;;;;;;7395602;19;20351;-73
2022/06/01 03:47:16;;;;;;;20.05;14.10;;;10.50;99.90;;;;;;7395950;19;20078;-73
2022/06/01 03:49:47;;;;;;;19.75;14.60;;;10.50;99.90;;;;;;7397348;19;20011;-74
2022/06/01 03:52:17;;;;;;;23.23;15.30;;;10.90;99.90;;;;;;7396816;19;20380;-73
2022/06/01 03:54:47;;;;;;;20.65;15.40;;;10.70;99.90;;;;;;7397560;19;20090;-73
2022/06/01 03:57:17;;;;;;;21.35;15.35;;;10.50;99.90;;;;;;7392190;19;20018;-73
2022/06/01 03:59:50;;;;;;;22.70;15.50;;;10.60;99.90;;;;;;7394247;19;20502;-73
2022/06/01 04:02:20;;;;;;;21.42;15.63;;;10.60;99.90;;;;;;7395976;19;20682;-74
2022/06/01 04:04:52;;;;;;;23.15;16.08;;;10.60;99.90;;;;;;7393957;19;20029;-74
2022/06/01 04:07:22;;;;;;;22.42;16.40;;;10.80;99.90;;;;;;7397381;19;20038;-74
2022/06/01 04:09:54;;;;;;;23.10;15.30;;;10.50;99.90;;;;;;7397789;19;20018;-73
2022/06/01 04:12:24;;;;;;;22.58;14.85;;;10.60;99.90;;;;;;7395086;19;20347;-73
2022/06/01 04:14:57;;;;;;;23.15;15.10;;;10.80;99.90;;;;;;7397365;19;20033;-73
2022/06/01 04:17:29;;;;;;;21.58;14.63;;;10.90;99.90;;;;;;7398112;19;20428;-73
2022/06/01 04:20:11;;;;;;;24.65;16.65;;;10.50;99.90;;;;;;7394061;19;20018;-73
2022/06/01 04:22:44;;;;;;;22.67;15.85;;;10.50;99.90;;;;;;7394296;19;20037;-73
2022/06/01 04:25:18;;;;;;;21.45;15.00;;;10.50;99.90;;;;;;7394638;19;20014;-74
2022/06/01 04:27:49;;;;;;;20.48;15.23;;;;;;;;;;7394198;19;20359;-73
2022/06/01 04:30:23;;;;;;;20.50;15.70;;;10.60;99.90;;;;;;7398074;19;20147;-73
2022/06/01 04:32:55;;;;;;;20.27;15.73;;;10.40;99.90;;;;;;7394550;19;20014;-74
2022/06/01 04:35:26;;;;;;;20.98;14.80;;;10.50;99.90;;;;;;7393383;19;20437;-73
2022/06/01 04:38:12;;;;;;;21.80;15.40;;;10.50;99.90;;;;;;7390533;19;20017;-73
2022/06/01 04:40:42;;;;;;;21.08;15.43;;;10.50;99.90;;;;;;7390298;19;20386;-73
2022/06/01 04:43:15;;;;;;;22.08;15.50;;;10.60;99.90;;;;;;7393768;19;20015;-73
2022/06/01 04:45:47;;;;;;;23.13;15.75;;;10.80;99.90;;;;;;7395766;19;20339;-73
2022/06/01 04:48:22;;;;;;;21.70;14.90;;;10.60;99.90;;;;;;7391904;19;20018;-73
2022/06/01 04:50:54;;;;;;;21.53;15.53;;;10.70;99.90;;;;;;7393680;19;20027;-73
2022/06/01 04:53:25;;;;;;;22.27;16.15;;;10.60;99.90;;;;;;7394939;19;20279;-74
2022/06/01 04:55:55;;;;;;;19.25;14.23;;;10.90;99.90;;;;;;7392445;19;20597;-74
2022/06/01 04:58:25;;;;;;;21.05;15.05;;;10.90;99.90;;;;;;7393044;19;20034;-73
2022/06/01 05:01:00;;;;;;;20.27;15.27;;;10.90;99.90;;;;;;7389283;19;20042;-73
2022/06/01 05:03:30;;;;;;;20.47;15.60;;;10.90;99.90;;;;;;7392373;19;20465;-74
2022/06/01 05:06:00;;;;;;;22.35;15.52;;;10.90;99.90;;;;;;7394956;19;20304;-74
2022/06/01 05:08:30;;;;;;;23.80;15.68;;;11.30;99.90;;;;;;7391831;19;20010;-74
2022/06/01 05:11:00;;;;;;;23.35;16.23;;;10.90;99.90;;;;;;7393683;19;20021;-74
2022/06/01 05:13:31;;;;;;;20.92;15.30;;;11.00;99.90;;;;;;7391698;19;20018;-73
2022/06/01 05:16:04;;;;;;;24.90;16.30;;;11.00;99.90;;;;;;7383178;19;20018;-72
2022/06/01 05:18:34;;;;;;;21.52;16.55;;;10.90;99.90;;;;;;7376805;19;20022;-72
2022/06/01 05:21:04;;;;;;;21.45;16.65;;;10.90;99.90;;;;;;7385607;19;20018;-73
2022/06/01 05:23:35;;;;;;;23.55;16.73;;;11.00;99.90;;;;;;7395131;19;20022;-73
2022/06/01 05:26:04;;;;;;;26.40;17.33;;;11.00;99.90;;;;;;7393236;19;20029;-73
2022/06/01 05:28:35;;;;;;;22.42;15.82;;;11.00;99.90;;;;;;7390488;19;20018;-73
2022/06/01 05:31:12;;;;;;;23.70;17.65;;;11.00;99.90;;;;;;7397020;19;20386;-73
2022/06/01 05:33:46;;;;;;;22.88;16.25;;;11.10;99.90;;;;;;7393612;19;20019;-73
2022/06/01 05:36:18;;;;;;;22.55;16.42;;;10.80;99.90;;;;;;7393356;19;20484;-73
2022/06/01 05:38:50;;;;;;;22.98;15.98;;;11.10;99.90;;;;;;7393533;19;20031;-73
2022/06/01 05:41:20;;;;;;;23.02;15.57;;;11.10;99.90;;;;;;7393187;19;20021;-73
2022/06/01 05:43:51;;;;;;;20.98;16.48;;;11.30;99.90;;;;;;7393719;19;20491;-73
2022/06/01 05:46:25;;;;;;;21.80;16.05;;;11.10;99.90;;;;;;7393688;19;20377;-73
2022/06/01 05:48:56;;;;;;;21.45;16.25;;;11.20;99.90;;;;;;7384012;19;20082;-73
2022/06/01 05:51:29;;;;;;;21.73;15.93;;;11.50;99.90;;;;;;7384610;19;20034;-73
2022/06/01 05:54:01;;;;;;;22.38;16.30;;;11.30;99.90;;;;;;7395322;19;20468;-73
2022/06/01 05:56:32;;;;;;;21.92;16.05;;;11.40;99.90;;;;;;7389902;19;20015;-73
2022/06/01 05:59:01;;;;;;;21.52;15.90;;;11.60;99.90;;;;;;7392688;19;20114;-72
2022/06/01 06:01:35;;;;;;;23.45;16.55;;;11.50;99.90;;;;;;7392467;19;20021;-72
2022/06/01 06:04:05;;;;;;;24.85;16.23;;;11.50;99.90;;;;;;7393669;19;20024;-73
2022/06/01 06:06:38;;;;;;;21.50;16.17;;;11.30;99.90;;;;;;7388325;19;20010;-73
2022/06/01 06:09:10;;;;;;;24.85;16.73;;;11.50;99.90;;;;;;7387130;19;20015;-73
2022/06/01 06:11:44;;;;;;;22.30;16.25;;;11.60;99.90;;;;;;7393526;19;20011;-73
2022/06/01 06:14:14;;;;;;;25.00;16.98;;;11.50;99.90;;;;;;7396291;19;20019;-73
2022/06/01 06:16:48;;;;;;;22.50;17.33;;;11.50;99.90;;;;;;7389039;19;20035;-73
2022/06/01 06:19:23;;;;;;;23.50;16.83;;;11.60;99.90;;;;;;7392633;19;20015;-73
2022/06/01 06:21:58;;;;;;;24.33;17.10;;;11.50;99.90;;;;;;7381734;19;20018;-73
2022/06/01 06:24:29;;;;;;;23.67;17.53;;;11.60;99.90;;;;;;7392396;19;20014;-73
2022/06/01 06:27:01;;;;;;;22.55;16.95;;;11.60;99.90;;;;;;7393413;19;20271;-73
2022/06/01 06:29:32;;;;;;;22.25;17.10;;;11.60;99.90;;;;;;7393292;19;20086;-73
2022/06/01 06:32:05;;;;;;;23.85;18.00;;;11.70;99.90;;;;;;7387307;19;20041;-74
2022/06/01 06:34:38;;;;;;;23.83;16.77;;;11.70;99.90;;;;;;7389099;19;20018;-73
2022/06/01 06:37:10;;;;;;;25.08;16.73;;;11.60;99.90;;;;;;7386294;19;20011;-73
2022/06/01 06:39:50;;;;;;;30.10;17.20;;;11.60;99.90;;;;;;7382444;19;20014;-73
2022/06/01 06:42:20;;;;;;;29.08;17.85;;;11.90;99.90;;;;;;7390061;19;20619;-73
2022/06/01 06:44:50;;;;;;;23.83;17.05;;;11.60;99.90;;;;;;7388033;19;20011;-73
2022/06/01 06:47:22;;;;;;;28.70;19.25;;;11.90;99.90;;;;;;7387971;19;21894;-73
2022/06/01 06:49:52;;;;;;;29.48;18.65;;;11.60;99.90;;;;;;7387022;19;20614;-73
2022/06/01 06:52:24;;;;;;;27.42;18.77;;;11.60;99.90;;;;;;7386649;19;20430;-73
2022/06/01 06:54:54;;;;;;;28.40;21.40;;;11.40;99.90;;;;;;7386659;19;20014;-73
2022/06/01 06:57:26;;;;;;;31.67;21.50;;;11.60;99.90;;;;;;7385279;19;20029;-73
2022/06/01 06:59:57;;;;;;;29.20;20.60;;;11.50;99.90;;;;;;7383053;19;20028;-73
2022/06/01 07:02:30;;;;;;;30.85;20.58;;;11.40;99.90;;;;;;7377015;19;20023;-73
2022/06/01 07:05:01;;;;;;;29.58;21.17;;;11.50;99.90;;;;;;7392705;19;20333;-73
2022/06/01 07:07:32;;;;;;;28.23;19.90;;;11.70;99.90;;;;;;7388260;19;20014;-73
2022/06/01 07:10:03;;;;;;;30.30;19.85;;;11.60;99.90;;;;;;7388227;19;20057;-73
2022/06/01 07:12:36;;;;;;;32.65;19.95;;;11.60;99.90;;;;;;7389698;19;20031;-73
2022/06/01 07:15:06;;;;;;;24.25;17.77;;;11.20;99.90;;;;;;7388394;19;20216;-73
2022/06/01 07:17:39;;;;;;;24.30;18.00;;;11.30;99.90;;;;;;7387589;19;20042;-73
2022/06/01 07:20:11;;;;;;;26.52;18.83;;;11.40;99.90;;;;;;7389712;19;20106;-73
2022/06/01 07:22:45;;;;;;;27.63;18.63;;;11.40;99.90;;;;;;7390400;19;20014;-74
2022/06/01 07:25:15;;;;;;;30.13;19.40;;;11.30;99.90;;;;;;7391018;19;20066;-73
2022/06/01 07:27:45;;;;;;;34.05;21.13;;;11.30;99.90;;;;;;7394863;19;20025;-73
2022/06/01 07:30:16;;;;;;;29.45;19.67;;;11.40;99.90;;;;;;7392756;19;20384;-73
2022/06/01 07:32:50;;;;;;;30.10;19.80;;;11.50;99.90;;;;;;7394647;19;20022;-73
2022/06/01 07:35:20;;;;;;;33.00;22.50;;;11.50;99.90;;;;;;7398003;19;20022;-73
2022/06/01 07:43:34;;;;;;;42.70;26.88;;;11.50;99.90;;;;;;7391916;19;20018;-73
2022/06/01 07:46:05;;;;;;;45.15;29.55;;;11.50;99.90;;;;;;7395661;19;20014;-74
2022/06/01 07:48:41;;;;;;;46.00;29.25;;;11.60;99.90;;;;;;7395897;19;20010;-73
2022/06/01 07:51:14;;;;;;;38.58;24.85;;;11.70;99.90;;;;;;7399266;19;20359;-73
2022/06/01 07:53:47;;;;;;;38.03;24.40;;;11.80;99.90;;;;;;7391255;19;20014;-73
2022/06/01 07:56:18;;;;;;;32.65;22.13;;;11.60;99.90;;;;;;7392743;19;20014;-72
2022/06/01 07:58:51;;;;;;;34.75;20.73;;;12.00;99.90;;;;;;7394407;19;20020;-72
2022/06/01 08:01:25;;;;;;;22.40;16.65;;;12.00;99.90;;;;;;7391743;19;20015;-72
2022/06/01 08:04:02;;;;;;;19.38;14.93;;;12.20;99.90;;;;;;7390142;19;20520;-72
2022/06/01 08:06:34;;;;;;;15.73;11.68;;;12.20;99.90;;;;;;7397991;19;20058;-72
2022/06/01 08:09:14;;;;;;;16.98;11.93;;;12.30;99.90;;;;;;7395163;19;20010;-72
2022/06/01 08:14:31;;;;;;;12.93;9.70;;;12.40;99.90;;;;;;7391568;19;20047;-72
2022/06/01 08:17:06;;;;;;;11.45;8.50;;;12.50;99.90;;;;;;7385989;19;20497;-72
2022/06/01 08:19:39;;;;;;;11.25;7.10;;;12.60;99.90;;;;;;7387485;19;20017;-72
2022/06/01 08:22:12;;;;;;;8.52;6.25;;;12.70;99.90;;;;;;7399310;19;20094;-72
2022/06/01 08:24:42;;;;;;;9.00;6.53;;;12.80;99.90;;;;;;7393558;19;20014;-72
2022/06/01 08:27:12;;;;;;;10.20;7.05;;;12.80;99.90;;;;;;7394693;19;20472;-72
2022/06/01 08:29:41;;;;;;;9.48;6.90;;;12.80;99.90;;;;;;7389238;19;20022;-72
2022/06/01 08:32:14;;;;;;;9.10;7.13;;;12.80;99.90;;;;;;7390316;19;20037;-72
2022/06/01 08:34:49;;;;;;;9.68;7.38;;;11.40;99.90;;;;;;7391599;19;20015;-72
2022/06/01 08:37:21;;;;;;;13.07;7.68;;;13.00;99.90;;;;;;7388204;19;20119;-72
2022/06/01 08:39:51;;;;;;;9.75;7.43;;;12.90;99.90;;;;;;7394370;19;20019;-72
2022/06/01 08:42:24;;;;;;;11.35;8.45;;;13.00;99.90;;;;;;7389203;19;20410;-72
2022/06/01 08:44:58;;;;;;;13.05;8.05;;;13.20;99.90;;;;;;7386593;19;20021;-72
2022/06/01 08:47:36;;;;;;;11.77;7.70;;;13.10;99.90;;;;;;7390964;19;20293;-72
2022/06/01 08:50:16;;;;;;;12.43;7.70;;;12.00;99.90;;;;;;7391826;19;20073;-72
2022/06/01 08:52:47;;;;;;;11.45;7.57;;;13.40;99.90;;;;;;7392032;19;20529;-72
2022/06/01 08:55:19;;;;;;;10.15;7.90;;;13.40;99.90;;;;;;7392146;19;20099;-72
2022/06/01 08:57:57;;;;;;;9.65;7.70;;;13.40;99.90;;;;;;7392225;19;20022;-72
2022/06/01 09:00:31;;;;;;;12.00;7.97;;;13.50;99.90;;;;;;7395463;19;20019;-72
2022/06/01 09:03:09;;;;;;;11.15;7.88;;;13.80;99.90;;;;;;7398297;19;20019;-72
2022/06/01 09:05:47;;;;;;;10.50;8.23;;;13.70;99.90;;;;;;7395135;19;20048;-72
2022/06/01 09:08:30;;;;;;;11.88;7.85;;;13.90;99.90;;;;;;7389712;19;20023;-72
2022/06/01 09:11:07;;;;;;;12.65;8.07;;;13.70;99.90;;;;;;7393749;19;20014;-72
2022/06/01 09:13:44;;;;;;;11.63;8.27;;;13.60;99.90;;;;;;7394670;19;20117;-72
2022/06/01 09:16:22;;;;;;;11.60;8.30;;;13.60;99.90;;;;;;7393886;19;20088;-72
2022/06/01 09:18:57;;;;;;;13.27;7.90;;;13.80;99.90;;;;;;7387828;19;20034;-72
2022/06/01 09:24:26;;;;;;;9.10;7.18;;;13.80;99.90;;;;;;7394302;19;20473;-72
2022/06/01 09:27:00;;;;;;;14.93;8.38;;;11.90;99.90;;;;;;7388968;19;20022;-72
2022/06/01 09:29:47;;;;;;;11.23;7.10;;;14.10;99.90;;;;;;7387709;19;20383;-72
2022/06/01 09:32:33;;;;;;;9.57;6.30;;;12.20;99.90;;;;;;7386130;19;20030;-72
2022/06/01 09:35:08;;;;;;;6.80;4.40;;;13.90;99.90;;;;;;7387614;19;20022;-72
2022/06/01 09:37:49;;;;;;;11.13;6.65;;;13.80;99.90;;;;;;7380962;19;20485;-72
2022/06/01 09:40:26;;;;;;;7.93;6.88;;;13.80;99.90;;;;;;7392427;19;20364;-72
2022/06/01 09:43:00;;;;;;;7.55;6.20;;;13.90;99.90;;;;;;7394064;19;20022;-72
2022/06/01 09:45:34;;;;;;;8.70;6.57;;;13.90;99.90;;;;;;7395418;19;20011;-72
2022/06/01 09:48:18;;;;;;;11.32;8.88;;;13.70;99.90;;;;;;7391705;19;20042;-72
2022/06/01 09:50:49;;;;;;;11.65;9.32;;;13.80;99.90;;;;;;7387919;19;20477;-72
2022/06/01 09:53:24;;;;;;;13.77;10.20;;;13.70;99.90;;;;;;7394161;19;20368;-72
2022/06/01 09:55:58;;;;;;;11.60;8.75;;;13.50;99.90;;;;;;7390598;19;20023;-72
2022/06/01 10:06:55;;;;;;;7.57;5.65;;;13.00;99.90;;;;;;7388804;19;20070;-72
2022/06/01 10:09:30;;;;;;;4.55;4.15;;;13.00;99.90;;;;;;7387560;19;20014;-72
2022/06/01 10:12:02;;;;;;;4.95;3.97;;;13.10;99.90;;;;;;7390823;19;20086;-72
2022/06/01 10:14:35;;;;;;;5.15;3.20;;;13.00;99.90;;;;;;7390161;19;20042;-78
2022/06/01 10:17:21;;;;;;;6.03;3.35;;;13.00;99.90;;;;;;7389419;19;20015;-78
2022/06/01 10:19:57;;;;;;;5.00;3.20;;;13.20;99.90;;;;;;7391694;19;20366;-77
2022/06/01 10:22:35;;;;;;;3.70;3.22;;;13.40;99.90;;;;;;7390313;19;20030;-78
2022/06/01 10:25:14;;;;;;;4.35;3.25;;;13.40;99.90;;;;;;7392705;19;20599;-79
2022/06/01 10:27:50;;;;;;;4.82;4.07;;;13.40;99.90;;;;;;7393233;19;20421;-79
2022/06/01 10:30:23;;;;;;;4.10;3.20;;;13.40;99.90;;;;;;7386139;19;20493;-79
2022/06/01 10:32:58;;;;;;;4.65;2.78;;;13.60;99.90;;;;;;7389207;19;20117;-78
2022/06/01 10:35:38;;;;;;;5.38;3.30;;;13.20;99.90;;;;;;7393735;19;20074;-78
2022/06/01 10:38:17;;;;;;;4.53;2.90;;;13.40;99.90;;;;;;7390900;19;20476;-79
2022/06/01 10:40:55;;;;;;;4.70;3.10;;;13.40;99.90;;;;;;7395674;19;20035;-79
2022/06/01 10:43:37;;;;;;;3.20;2.47;;;13.50;99.90;;;;;;7397430;19;20018;-79
2022/06/01 10:46:18;;;;;;;5.68;3.00;;;13.80;99.90;;;;;;7399516;19;20024;-79
2022/06/01 10:48:55;;;;;;;2.78;2.25;;;14.10;99.90;;;;;;7397817;19;20087;-79
2022/06/01 10:51:29;;;;;;;5.30;2.60;;;14.30;99.90;;;;;;7399945;19;20014;-79
2022/06/01 10:54:07;;;;;;;2.30;1.90;;;14.60;99.90;;;;;;7400694;19;20022;-79
2022/06/01 10:56:39;;;;;;;3.58;2.42;;;14.50;99.90;;;;;;7395495;19;20018;-79
2022/06/01 10:59:13;;;;;;;3.15;2.33;;;14.90;99.90;;;;;;7400140;19;20031;-78
2022/06/01 11:01:53;;;;;;;3.20;2.30;;;15.20;99.90;;;;;;7394632;19;20025;-79
2022/06/01 11:04:50;;;;;;;2.38;2.17;;;15.50;99.90;;;;;;7398877;19;20015;-80
2022/06/01 11:07:47;;;;;;;3.10;2.25;;;14.70;99.90;;;;;;7397215;19;20015;-79
2022/06/01 11:10:24;;;;;;;2.30;1.70;;;15.90;99.20;;;;;;7395731;19;20014;-80
2022/06/01 11:13:12;;;;;;;3.28;2.20;;;15.80;99.20;;;;;;7399545;19;20089;-79
2022/06/01 11:15:54;;;;;;;2.70;2.40;;;15.60;99.30;;;;;;7397509;19;20553;-79
2022/06/01 11:18:39;;;;;;;2.35;1.85;;;15.30;99.90;;;;;;7399562;19;20026;-79
2022/06/01 11:21:16;;;;;;;3.85;2.03;;;15.20;99.90;;;;;;7393959;19;20081;-79
2022/06/01 11:23:57;;;;;;;3.53;2.00;;;15.20;99.90;;;;;;7397329;19;20038;-79
2022/06/01 11:26:38;;;;;;;3.42;2.35;;;15.30;99.90;;;;;;7397211;19;20015;-79
2022/06/01 11:29:27;;;;;;;2.47;1.90;;;15.30;99.90;;;;;;7399625;19;20010;-79
2022/06/01 11:32:21;;;;;;;3.67;2.95;;;15.20;99.90;;;;;;7399594;19;20015;-79
2022/06/01 11:34:57;;;;;;;4.20;2.95;;;15.00;99.90;;;;;;7396208;19;20018;-79
2022/06/01 11:37:34;;;;;;;3.00;2.53;;;14.90;99.90;;;;;;7397948;19;20082;-79
2022/06/01 11:40:12;;;;;;;3.20;2.65;;;14.60;99.90;;;;;;7396578;19;20026;-79
2022/06/01 11:42:46;;;;;;;2.58;2.17;;;14.50;99.90;;;;;;7394507;19;20010;-78
2022/06/01 11:45:23;;;;;;;2.30;1.90;;;14.80;99.90;;;;;;7395859;19;20019;-79
2022/06/01 11:47:57;;;;;;;3.50;2.63;;;15.10;99.90;;;;;;7388598;19;20089;-79
2022/06/01 11:50:28;;;;;;;3.08;2.17;;;15.30;99.90;;;;;;7389194;19;20028;-79
2022/06/01 11:53:06;;;;;;;4.60;2.40;;;15.40;99.90;;;;;;7392475;19;20497;-78
2022/06/01 11:55:48;;;;;;;3.55;2.75;;;15.40;99.90;;;;;;7389496;19;20070;-79
2022/06/01 11:58:24;;;;;;;2.90;2.20;;;15.60;99.80;;;;;;7395647;19;20011;-79
2022/06/01 12:01:12;;;;;;;2.92;2.10;;;15.60;99.50;;;;;;7390090;19;20086;-79
2022/06/01 12:03:58;;;;;;;2.30;1.80;;;15.50;99.30;;;;;;7391800;19;20025;-79
2022/06/01 12:06:48;;;;;;;4.47;3.08;;;15.20;98.00;;;;;;7393499;19;20099;-79
2022/06/01 12:09:28;;;;;;;3.90;3.00;;;15.10;98.90;;;;;;7391222;19;20014;-79
2022/06/01 12:11:57;;;;;;;3.95;2.50;;;14.90;99.80;;;;;;7391497;19;20017;-79
2022/06/01 12:14:37;;;;;;;5.90;3.20;;;14.40;99.90;;;;;;7396508;19;20018;-80
2022/06/01 12:17:29;;;;;;;5.07;3.40;;;14.30;99.90;;;;;;7395234;19;20022;-79
2022/06/01 12:20:32;;;;;;;4.07;3.10;;;14.20;99.90;;;;;;7395250;19;20485;-79
2022/06/01 12:29:33;;;;;;;11.75;4.68;;;13.00;99.90;;;;;;7393479;19;20030;-83
2022/06/01 12:32:16;;;;;;;7.75;3.88;;;12.50;99.90;;;;;;7396244;19;20407;-81
2022/06/01 12:35:15;;;;;;;7.78;4.47;;;12.00;99.90;;;;;;7396944;19;20018;-82
2022/06/01 12:37:57;;;;;;;5.05;3.50;;;11.90;99.90;;;;;;7395025;19;20025;-83
2022/06/01 12:40:29;;;;;;;6.43;3.72;;;11.70;99.90;;;;;;7393963;19;20070;-83
2022/06/01 12:43:02;;;;;;;5.57;3.63;;;11.90;99.90;;;;;;7390179;19;20050;-83
2022/06/01 12:45:41;;;;;;;8.40;4.30;;;11.90;99.90;;;;;;7393404;19;20478;-83
2022/06/01 12:48:14;;;;;;;8.98;4.60;;;12.00;99.90;;;;;;7393970;19;20014;-83
2022/06/01 12:50:57;;;;;;;8.40;3.88;;;12.20;99.90;;;;;;7392249;19;20054;-83
2022/06/01 12:53:30;;;;;;;5.63;3.80;;;12.20;99.90;;;;;;7393616;19;20042;-83
2022/06/01 12:56:11;;;;;;;7.55;4.40;;;12.40;99.90;;;;;;7393757;19;20019;-83
2022/06/01 12:58:47;;;;;;;5.50;4.15;;;12.50;99.90;;;;;;7395591;19;20036;-83
2022/06/01 13:01:18;;;;;;;6.45;4.20;;;12.60;99.90;;;;;;7389569;19;20007;-83
2022/06/01 13:03:52;;;;;;;5.45;3.58;;;12.80;99.90;;;;;;7390606;19;20026;-83
2022/06/01 13:06:28;;;;;;;6.47;4.15;;;12.90;99.90;;;;;;7385626;19;20018;-83
2022/06/01 13:09:00;;;;;;;6.28;3.88;;;13.00;99.90;;;;;;7394120;19;20382;-83
2022/06/01 13:11:33;;;;;;;4.05;3.58;;;13.00;99.90;;;;;;7387990;19;20037;-83
2022/06/01 13:14:04;;;;;;;5.22;3.95;;;13.60;99.90;;;;;;7391803;19;20090;-83
2022/06/01 13:16:39;;;;;;;5.90;3.30;;;13.70;99.90;;;;;;7394676;19;20018;-83
2022/06/01 13:19:24;;;;;;;4.88;3.30;;;13.70;99.90;;;;;;7393074;19;20105;-83
2022/06/01 13:22:05;;;;;;;5.60;3.80;;;14.00;99.90;;;;;;7392282;19;20021;-83
2022/06/01 13:24:42;;;;;;;4.00;3.08;;;14.20;99.90;;;;;;7391483;19;20018;-84
2022/06/01 13:27:15;;;;;;;5.00;3.70;;;14.30;99.90;;;;;;7397481;19;20011;-82
2022/06/01 13:29:48;;;;;;;6.45;4.40;;;14.70;99.90;;;;;;7391671;19;20022;-83
2022/06/01 13:32:21;;;;;;;4.68;3.22;;;15.10;99.90;;;;;;7393365;19;20019;-83
2022/06/01 13:34:52;;;;;;;4.28;3.22;;;15.20;99.90;;;;;;7396467;19;20078;-81
2022/06/01 13:37:29;;;;;;;5.75;3.60;;;15.20;99.90;;;;;;7391513;19;20461;-81
2022/06/01 13:40:02;;;;;;;6.57;3.90;;;15.10;99.90;;;;;;7395904;19;20019;-81
2022/06/01 13:42:37;;;;;;;4.72;4.15;;;15.00;99.90;;;;;;7390442;19;20035;-80
2022/06/01 13:45:16;;;;;;;5.75;3.70;;;14.90;99.90;;;;;;7393329;19;20022;-81
2022/06/01 13:47:50;;;;;;;4.32;3.92;;;14.60;99.90;;;;;;7393969;19;20014;-81